createdAt,value
2022-09-30T00:02:01.442Z,75.86
2022-09-30T00:04:30.636Z,76.10
2022-09-30T00:06:59.883Z,75.63
2022-09-30T00:09:29.106Z,75.23
2022-09-30T00:11:58.492Z,75.37
2022-09-30T00:14:27.678Z,75.73
2022-09-30T00:16:56.791Z,75.29
2022-09-30T00:19:27.443Z,75.32
2022-09-30T00:21:56.614Z,75.02
2022-09-30T00:24:25.790Z,74.91
2022-09-30T00:26:55.077Z,75.03
2022-09-30T00:29:24.213Z,74.62
2022-09-30T00:31:53.510Z,74.84
2022-09-30T00:34:22.775Z,74.86
2022-09-30T00:36:55.674Z,74.35
2022-09-30T00:39:28.054Z,74.78
2022-09-30T00:42:01.122Z,74.52
2022-09-30T00:44:54.277Z,74.04
2022-09-30T00:47:43.733Z,74.46
2022-09-30T00:50:36.375Z,74.24
2022-09-30T00:53:15.450Z,74.43
2022-09-30T00:55:52.870Z,74.10
2022-09-30T00:58:29.455Z,74.18
2022-09-30T01:01:01.832Z,73.86
2022-09-30T01:03:34.907Z,73.91
2022-09-30T01:06:04.495Z,74.03
2022-09-30T01:08:39.324Z,74.34
2022-09-30T01:11:08.591Z,74.00
2022-09-30T01:13:40.987Z,74.00
2022-09-30T01:16:43.980Z,73.72
2022-09-30T01:19:43.672Z,73.77
2022-09-30T01:22:33.186Z,74.18
2022-09-30T01:25:56.709Z,73.67
2022-09-30T01:28:47.692Z,73.75
2022-09-30T01:31:40.436Z,73.77
2022-09-30T01:34:19.455Z,73.64
2022-09-30T01:37:08.125Z,73.52
2022-09-30T01:39:50.529Z,73.64
2022-09-30T01:42:29.149Z,73.97
2022-09-30T01:45:08.463Z,74.25
2022-09-30T01:47:48.468Z,73.92
2022-09-30T01:50:23.303Z,74.19
2022-09-30T01:53:02.215Z,74.20
2022-09-30T01:55:37.374Z,74.36
2022-09-30T01:58:16.064Z,73.72
2022-09-30T02:00:52.326Z,74.12
2022-09-30T02:03:29.074Z,73.72
2022-09-30T02:06:03.817Z,73.93
2022-09-30T02:08:41.524Z,73.89
2022-09-30T02:11:16.448Z,73.79
2022-09-30T02:13:52.139Z,73.58
2022-09-30T02:16:29.721Z,73.90
2022-09-30T02:19:10.382Z,73.53
2022-09-30T02:21:44.989Z,73.07
2022-09-30T02:24:18.905Z,73.01
2022-09-30T02:26:51.049Z,72.96
2022-09-30T02:29:25.057Z,72.36
2022-09-30T02:31:59.367Z,72.08
2022-09-30T02:34:33.997Z,71.13
2022-09-30T02:37:10.291Z,71.44
2022-09-30T02:39:45.095Z,70.74
2022-09-30T02:42:20.493Z,71.10
2022-09-30T02:44:52.396Z,70.48
2022-09-30T02:47:32.636Z,69.79
2022-09-30T02:50:13.721Z,69.99
2022-09-30T02:52:56.961Z,69.82
2022-09-30T02:55:35.163Z,69.27
2022-09-30T02:58:13.292Z,68.55
2022-09-30T03:00:42.616Z,68.23
2022-09-30T03:03:20.654Z,67.65
2022-09-30T03:05:52.930Z,67.40
2022-09-30T03:08:22.429Z,67.70
2022-09-30T03:10:53.519Z,66.31
2022-09-30T03:14:10.842Z,66.41
2022-09-30T03:17:09.670Z,66.16
2022-09-30T03:19:56.493Z,66.01
2022-09-30T03:23:08.988Z,66.14
2022-09-30T03:25:49.445Z,65.77
2022-09-30T03:28:28.058Z,65.86
2022-09-30T03:31:07.265Z,65.60
2022-09-30T03:33:50.538Z,65.18
2022-09-30T03:36:29.819Z,65.15
2022-09-30T03:39:07.594Z,65.21
2022-09-30T03:41:43.558Z,64.83
2022-09-30T03:44:22.291Z,64.86
2022-09-30T03:46:57.734Z,64.69
2022-09-30T03:49:33.316Z,64.72
2022-09-30T03:52:07.325Z,64.71
2022-09-30T03:54:48.583Z,64.48
2022-09-30T03:57:17.888Z,64.51
2022-09-30T03:59:47.059Z,64.28
2022-09-30T04:02:16.448Z,63.92
2022-09-30T04:04:45.600Z,63.93
2022-09-30T04:07:14.774Z,64.39
2022-09-30T04:09:45.373Z,64.58
2022-09-30T04:12:14.607Z,65.10
2022-09-30T04:14:43.921Z,65.76
2022-09-30T04:17:13.056Z,66.73
2022-09-30T04:19:42.269Z,66.57
2022-09-30T04:22:11.760Z,67.13
2022-09-30T04:24:40.880Z,67.18
2022-09-30T04:27:11.524Z,67.80
2022-09-30T04:29:40.670Z,68.47
2022-09-30T04:32:09.794Z,68.62
2022-09-30T04:34:39.000Z,68.63
2022-09-30T04:37:10.955Z,69.41
2022-09-30T04:39:40.917Z,69.72
2022-09-30T04:42:11.479Z,69.83
2022-09-30T04:44:40.660Z,70.66
2022-09-30T04:47:09.885Z,70.56
2022-09-30T04:49:39.159Z,71.46
2022-09-30T04:52:08.390Z,71.25
2022-09-30T04:54:37.497Z,71.33
2022-09-30T04:57:06.632Z,71.92
2022-09-30T04:59:37.337Z,72.56
2022-09-30T05:02:06.749Z,72.62
2022-09-30T05:04:36.008Z,73.18
2022-09-30T05:07:08.940Z,73.75
2022-09-30T05:09:38.549Z,73.69
2022-09-30T05:12:08.346Z,73.63
2022-09-30T05:14:38.977Z,73.91
2022-09-30T05:17:08.810Z,73.59
2022-09-30T05:19:37.900Z,73.48
2022-09-30T05:22:07.086Z,73.24
2022-09-30T05:24:36.242Z,73.49
2022-09-30T05:27:05.472Z,73.66
2022-09-30T05:29:34.675Z,73.83
2022-09-30T05:32:05.801Z,75.31
2022-09-30T05:34:35.034Z,75.04
2022-09-30T05:37:04.350Z,75.22
2022-09-30T05:39:33.483Z,75.01
2022-09-30T05:42:02.653Z,75.45
2022-09-30T05:44:31.812Z,75.37
2022-09-30T05:47:01.183Z,75.73
2022-09-30T05:49:35.075Z,76.00
2022-09-30T05:52:04.275Z,75.55
2022-09-30T05:54:33.443Z,75.29
2022-09-30T05:57:02.669Z,75.41
2022-09-30T05:59:31.937Z,75.61
2022-09-30T06:02:01.766Z,76.08
2022-09-30T06:04:32.498Z,75.56
2022-09-30T06:07:01.742Z,75.93
2022-09-30T06:09:30.982Z,76.08
2022-09-30T06:12:00.396Z,76.48
2022-09-30T06:14:29.518Z,76.82
2022-09-30T06:17:00.539Z,77.17
2022-09-30T06:19:31.178Z,76.73
2022-09-30T06:22:01.514Z,77.20
2022-09-30T06:24:31.136Z,77.33
2022-09-30T06:27:00.468Z,77.39
2022-09-30T06:29:29.611Z,77.56
2022-09-30T06:31:58.739Z,77.27
2022-09-30T06:34:27.937Z,78.91
2022-09-30T06:36:58.492Z,79.06
2022-09-30T06:39:28.298Z,80.25
2022-09-30T06:41:57.446Z,80.64
2022-09-30T06:44:29.452Z,81.25
2022-09-30T06:46:59.974Z,81.21
2022-09-30T06:49:37.812Z,80.83
2022-09-30T06:52:14.231Z,81.42
2022-09-30T06:54:43.764Z,81.54
2022-09-30T06:57:12.895Z,81.34
2022-09-30T06:59:42.914Z,81.34
2022-09-30T07:02:13.553Z,81.48
2022-09-30T07:04:43.002Z,81.81
2022-09-30T07:07:13.823Z,81.30
2022-09-30T07:09:43.912Z,81.46
2022-09-30T07:12:13.104Z,81.90
2022-09-30T07:14:42.355Z,81.61
2022-09-30T07:17:11.542Z,82.49
2022-09-30T07:19:40.917Z,82.42
2022-09-30T07:22:27.563Z,82.40
2022-09-30T07:24:59.138Z,83.04
2022-09-30T07:27:31.550Z,83.14
2022-09-30T07:30:13.341Z,82.32
2022-09-30T07:32:47.586Z,82.64
2022-09-30T07:35:16.873Z,82.80
2022-09-30T07:37:46.216Z,83.25
2022-09-30T07:40:17.004Z,83.45
2022-09-30T07:42:46.658Z,83.39
2022-09-30T07:45:17.206Z,83.39
2022-09-30T07:47:51.000Z,83.40
2022-09-30T07:50:22.723Z,83.93
2022-09-30T07:52:54.090Z,83.35
2022-09-30T07:55:25.049Z,83.54
2022-09-30T07:57:54.241Z,83.90
2022-09-30T08:00:41.497Z,83.63
2022-09-30T08:03:11.919Z,84.58
2022-09-30T08:05:41.900Z,85.01
2022-09-30T08:08:11.137Z,85.15
2022-09-30T08:10:41.766Z,85.36
2022-09-30T08:13:13.921Z,85.67
2022-09-30T08:15:43.284Z,86.01
2022-09-30T08:18:12.604Z,85.45
2022-09-30T08:20:41.932Z,85.92
2022-09-30T08:23:11.102Z,85.70
2022-09-30T08:25:41.721Z,85.86
2022-09-30T08:28:12.255Z,85.91
2022-09-30T08:30:41.998Z,86.38
2022-09-30T08:33:11.326Z,86.46
2022-09-30T08:35:40.514Z,86.71
2022-09-30T08:38:09.672Z,86.51
2022-09-30T08:40:56.757Z,86.76
2022-09-30T08:43:37.990Z,86.77
2022-09-30T08:46:18.715Z,87.08
2022-09-30T08:49:04.022Z,87.39
2022-09-30T08:51:38.272Z,87.86
2022-09-30T08:54:13.826Z,87.71
2022-09-30T08:56:45.817Z,87.70
2022-09-30T08:59:28.820Z,87.51
2022-09-30T09:02:03.131Z,87.31
2022-09-30T09:04:32.556Z,87.40
2022-09-30T09:07:11.755Z,87.07
2022-09-30T09:09:57.698Z,87.01
2022-09-30T09:12:38.754Z,86.54
2022-09-30T09:15:28.138Z,86.43
2022-09-30T09:18:36.196Z,86.00
2022-09-30T09:21:21.534Z,85.31
2022-09-30T09:23:54.227Z,85.32
2022-09-30T09:26:24.438Z,85.16
2022-09-30T09:29:20.187Z,84.69
2022-09-30T09:31:49.490Z,84.77
2022-09-30T09:34:18.744Z,85.15
2022-09-30T09:37:00.842Z,85.56
2022-09-30T09:40:03.581Z,87.40
2022-09-30T09:42:55.553Z,89.14
2022-09-30T09:45:36.076Z,89.42
2022-09-30T09:48:12.100Z,89.24
2022-09-30T09:50:54.657Z,89.40
2022-09-30T09:53:49.492Z,89.33
2022-09-30T09:56:21.958Z,90.11
2022-09-30T09:59:09.780Z,89.96
2022-09-30T10:01:43.445Z,90.12
2022-09-30T10:04:22.116Z,90.05
2022-09-30T10:06:57.900Z,90.23
2022-09-30T10:09:33.457Z,90.06
2022-09-30T10:12:29.368Z,90.27
2022-09-30T10:15:20.924Z,90.36
2022-09-30T10:17:57.681Z,90.30
2022-09-30T10:20:33.541Z,90.09
2022-09-30T10:23:10.782Z,91.04
2022-09-30T10:25:39.963Z,90.92
2022-09-30T10:28:25.283Z,91.19
2022-09-30T10:30:59.805Z,91.13
2022-09-30T10:33:37.266Z,90.81
2022-09-30T10:36:15.358Z,90.47
2022-09-30T10:39:02.578Z,90.19
2022-09-30T10:41:38.433Z,90.06
2022-09-30T10:44:16.909Z,89.53
2022-09-30T10:46:49.141Z,89.34
2022-09-30T10:49:33.199Z,89.95
2022-09-30T10:52:04.294Z,89.93
2022-09-30T10:54:50.182Z,90.41
2022-09-30T10:57:24.900Z,90.14
2022-09-30T11:00:01.186Z,90.25
2022-09-30T11:02:38.109Z,89.66
2022-09-30T11:05:18.231Z,89.56
2022-09-30T11:07:54.822Z,89.43
2022-09-30T11:10:36.068Z,88.78
2022-09-30T11:13:14.963Z,89.30
2022-09-30T11:15:54.922Z,89.47
2022-09-30T11:18:32.075Z,89.25
2022-09-30T11:21:07.937Z,89.33
2022-09-30T11:23:42.343Z,89.00
2022-09-30T11:26:20.573Z,88.76
2022-09-30T11:29:07.277Z,88.19
2022-09-30T11:31:42.156Z,87.84
2022-09-30T11:34:30.026Z,87.68
2022-09-30T11:37:16.438Z,87.60
2022-09-30T11:40:16.134Z,87.61
2022-09-30T11:42:54.737Z,87.36
2022-09-30T11:45:36.775Z,87.98
2022-09-30T11:48:32.542Z,87.94
2022-09-30T11:51:17.110Z,88.54
2022-09-30T11:54:02.219Z,88.79
2022-09-30T11:56:48.370Z,89.54
2022-09-30T11:59:25.239Z,90.29
2022-09-30T12:02:02.522Z,89.96
2022-09-30T12:04:39.484Z,90.31
2022-09-30T12:07:17.867Z,90.13
2022-09-30T12:09:55.058Z,90.19
2022-09-30T12:12:24.485Z,90.68
2022-09-30T12:14:58.366Z,90.89
2022-09-30T12:17:33.387Z,91.58
2022-09-30T12:20:16.918Z,90.93
2022-09-30T12:22:49.435Z,91.21
2022-09-30T12:25:26.267Z,90.48
2022-09-30T12:28:01.832Z,90.42
2022-09-30T12:30:31.035Z,90.97
2022-09-30T12:33:48.845Z,91.02
2022-09-30T12:36:57.643Z,90.72
2022-09-30T12:40:20.043Z,89.85
2022-09-30T12:43:41.291Z,88.26
2022-09-30T12:46:31.761Z,87.83
2022-09-30T12:49:06.156Z,87.65
2022-09-30T12:51:39.179Z,86.25
2022-09-30T12:54:18.884Z,83.12
2022-09-30T12:56:54.915Z,83.06
2022-09-30T12:59:31.596Z,81.29
2022-09-30T13:02:04.505Z,79.95
2022-09-30T13:04:37.901Z,78.06
2022-09-30T13:07:20.391Z,72.97
2022-09-30T13:10:03.169Z,71.79
2022-09-30T13:12:44.153Z,68.31
2022-09-30T13:15:43.617Z,63.07
2022-09-30T13:18:59.662Z,62.24
2022-09-30T13:21:32.039Z,61.07
2022-09-30T13:24:01.906Z,60.18
2022-09-30T13:26:48.643Z,58.19
2022-09-30T13:29:50.869Z,55.85
2022-09-30T13:32:37.475Z,54.54
2022-09-30T13:35:33.218Z,53.48
2022-09-30T13:38:36.511Z,51.69
2022-09-30T13:41:17.701Z,51.37
2022-09-30T13:44:03.358Z,52.65
2022-09-30T13:46:43.165Z,53.20
2022-09-30T13:49:22.731Z,53.97
2022-09-30T13:51:52.871Z,53.47
2022-09-30T13:54:31.151Z,51.91
2022-09-30T13:57:02.424Z,52.76
2022-09-30T13:59:49.302Z,53.00
2022-09-30T14:03:03.974Z,53.23
2022-09-30T14:05:55.713Z,52.65
2022-09-30T14:08:55.045Z,52.43
2022-09-30T14:11:56.792Z,51.95
2022-09-30T14:15:09.785Z,51.63
2022-09-30T14:18:00.662Z,51.20
2022-09-30T14:20:52.877Z,50.58
2022-09-30T14:23:22.633Z,49.08
2022-09-30T14:26:01.207Z,48.64
2022-09-30T14:28:37.913Z,48.73
2022-09-30T14:31:10.320Z,48.63
2022-09-30T14:33:39.880Z,48.78
2022-09-30T14:36:16.968Z,49.16
2022-09-30T14:38:49.254Z,49.22
2022-09-30T14:41:22.549Z,49.03
2022-09-30T14:43:56.698Z,47.70
2022-09-30T14:46:35.138Z,46.51
2022-09-30T14:49:08.501Z,43.49
2022-09-30T14:51:43.715Z,44.04
2022-09-30T14:54:19.810Z,42.28
2022-09-30T14:56:51.103Z,42.62
2022-09-30T14:59:24.916Z,42.44
2022-09-30T15:02:00.751Z,42.07
2022-09-30T15:04:34.224Z,42.48
2022-09-30T15:07:11.064Z,42.04
2022-09-30T15:09:43.788Z,42.64
2022-09-30T15:12:16.194Z,43.01
2022-09-30T15:14:50.025Z,43.19
2022-09-30T15:17:21.598Z,43.76
2022-09-30T15:19:51.373Z,44.69
2022-09-30T15:22:24.161Z,45.49
2022-09-30T15:24:54.478Z,46.53
2022-09-30T15:27:28.336Z,47.17
2022-09-30T15:29:58.459Z,48.11
2022-09-30T15:32:30.496Z,48.46
2022-09-30T15:35:05.543Z,49.32
2022-09-30T15:37:36.442Z,50.08
2022-09-30T15:40:33.876Z,50.84
2022-09-30T15:43:07.032Z,51.87
2022-09-30T15:45:39.608Z,52.52
2022-09-30T15:48:29.265Z,53.03
2022-09-30T15:51:01.534Z,53.20
2022-09-30T15:53:47.208Z,53.56
2022-09-30T15:56:24.643Z,53.86
2022-09-30T15:58:58.266Z,54.22
2022-09-30T16:01:34.377Z,54.88
2022-09-30T16:04:10.204Z,55.08
2022-09-30T16:06:48.531Z,55.78
2022-09-30T16:09:29.255Z,55.61
2022-09-30T16:12:05.501Z,56.18
2022-09-30T16:14:44.925Z,56.82
2022-09-30T16:17:21.413Z,56.67
2022-09-30T16:19:55.936Z,57.71
2022-09-30T16:22:54.956Z,59.21
2022-09-30T16:25:30.809Z,59.14
2022-09-30T16:28:02.684Z,60.29
2022-09-30T16:30:33.367Z,60.29
2022-09-30T16:33:07.592Z,60.80
2022-09-30T16:35:36.812Z,60.80
2022-09-30T16:38:08.951Z,60.33
2022-09-30T16:40:40.230Z,60.37
2022-09-30T16:43:11.017Z,60.33
2022-09-30T16:45:41.690Z,60.62
2022-09-30T16:48:17.360Z,61.42
2022-09-30T16:50:51.688Z,61.80
2022-09-30T16:53:20.849Z,61.64
2022-09-30T16:55:52.339Z,62.96
2022-09-30T16:58:21.483Z,63.06
2022-09-30T17:00:50.805Z,63.96
2022-09-30T17:03:21.715Z,64.56
2022-09-30T17:05:53.304Z,63.99
2022-09-30T17:08:24.313Z,64.34
2022-09-30T17:10:56.262Z,65.32
2022-09-30T17:13:26.926Z,65.92
2022-09-30T17:15:57.899Z,65.59
2022-09-30T17:18:27.121Z,66.01
2022-09-30T17:20:56.689Z,65.88
2022-09-30T17:23:26.953Z,65.09
2022-09-30T17:25:58.127Z,66.01
2022-09-30T17:28:27.375Z,65.60
2022-09-30T17:30:56.965Z,66.01
2022-09-30T17:33:26.308Z,65.51
2022-09-30T17:36:00.691Z,65.51
2022-09-30T17:38:30.783Z,65.83
2022-09-30T17:41:19.926Z,65.50
2022-09-30T17:43:49.545Z,65.55
2022-09-30T17:46:23.425Z,65.80
2022-09-30T17:48:57.847Z,66.22
2022-09-30T17:51:27.023Z,66.32
2022-09-30T17:53:57.091Z,66.18
2022-09-30T17:56:29.221Z,65.96
2022-09-30T17:59:01.994Z,66.06
2022-09-30T18:01:32.221Z,66.34
2022-09-30T18:04:02.100Z,65.80
2022-09-30T18:06:32.292Z,65.62
2022-09-30T18:09:01.583Z,65.97
2022-09-30T18:11:32.417Z,65.94
2022-09-30T18:14:02.304Z,66.39
2022-09-30T18:16:33.935Z,66.23
2022-09-30T18:19:05.701Z,65.85
2022-09-30T18:21:37.258Z,65.98
2022-09-30T18:24:07.893Z,65.76
2022-09-30T18:26:38.559Z,65.63
2022-09-30T18:29:08.120Z,65.73
2022-09-30T18:31:38.821Z,65.81
2022-09-30T18:34:08.453Z,65.79
2022-09-30T18:36:38.023Z,65.80
2022-09-30T18:39:07.440Z,65.92
2022-09-30T18:41:44.516Z,66.45
2022-09-30T18:44:14.556Z,66.78
2022-09-30T18:46:44.210Z,67.04
2022-09-30T18:49:13.745Z,67.33
2022-09-30T18:51:42.986Z,67.58
2022-09-30T18:54:13.388Z,67.64
2022-09-30T18:56:45.040Z,67.38
2022-09-30T18:59:18.310Z,68.23
2022-09-30T19:01:50.497Z,68.23
2022-09-30T19:04:19.809Z,69.53
2022-09-30T19:06:50.023Z,70.49
2022-09-30T19:09:19.256Z,70.90
2022-09-30T19:11:51.567Z,70.86
2022-09-30T19:14:20.969Z,71.50
2022-09-30T19:16:51.349Z,71.16
2022-09-30T19:19:22.885Z,70.80
2022-09-30T19:21:52.246Z,70.95
2022-09-30T19:24:25.373Z,70.36
2022-09-30T19:26:58.058Z,70.76
2022-09-30T19:29:27.371Z,70.44
2022-09-30T19:31:57.548Z,70.82
2022-09-30T19:34:32.235Z,70.71
2022-09-30T19:37:02.048Z,71.45
2022-09-30T19:39:42.079Z,72.08
2022-09-30T19:42:18.392Z,72.00
2022-09-30T19:44:47.558Z,72.77
2022-09-30T19:47:17.071Z,73.25
2022-09-30T19:49:46.594Z,73.74
2022-09-30T19:52:21.902Z,73.84
2022-09-30T19:54:55.865Z,74.11
2022-09-30T19:57:28.228Z,74.38
2022-09-30T20:00:00.367Z,74.42
2022-09-30T20:02:40.515Z,74.10
2022-09-30T20:05:11.564Z,74.43
2022-09-30T20:07:40.857Z,74.29
2022-09-30T20:10:10.885Z,74.22
2022-09-30T20:12:42.779Z,74.14
2022-09-30T20:15:29.827Z,74.36
2022-09-30T20:17:59.065Z,74.53
2022-09-30T20:20:44.864Z,74.60
2022-09-30T20:23:14.769Z,75.18
2022-09-30T20:25:44.079Z,75.02
2022-09-30T20:28:14.722Z,75.26
2022-09-30T20:30:45.695Z,75.07
2022-09-30T20:33:17.726Z,74.94
2022-09-30T20:35:47.506Z,74.22
2022-09-30T20:38:19.305Z,74.54
2022-09-30T20:40:48.460Z,74.62
2022-09-30T20:43:19.719Z,74.57
2022-09-30T20:45:55.538Z,74.99
2022-09-30T20:48:24.807Z,74.76
2022-09-30T20:50:53.998Z,74.83
2022-09-30T20:53:24.189Z,74.78
2022-09-30T20:55:53.348Z,74.96
2022-09-30T20:58:24.035Z,74.83
2022-09-30T21:00:53.248Z,74.97
2022-09-30T21:03:23.258Z,74.73
2022-09-30T21:05:55.489Z,74.72
2022-09-30T21:08:24.912Z,74.64
2022-09-30T21:10:54.046Z,75.11
2022-09-30T21:13:24.690Z,75.36
2022-09-30T21:16:01.978Z,75.14
2022-09-30T21:18:31.735Z,75.12
2022-09-30T21:21:03.398Z,75.44
2022-09-30T21:23:35.373Z,74.79
2022-09-30T21:26:06.872Z,74.85
2022-09-30T21:28:38.397Z,74.89
2022-09-30T21:31:14.216Z,74.21
2022-09-30T21:33:44.835Z,74.45
2022-09-30T21:36:14.150Z,74.19
2022-09-30T21:38:43.384Z,73.88
2022-09-30T21:41:12.540Z,74.35
2022-09-30T21:43:43.901Z,74.47
2022-09-30T21:46:15.415Z,74.63
2022-09-30T21:48:45.603Z,74.83
2022-09-30T21:51:15.034Z,74.60
2022-09-30T21:53:44.261Z,74.83
2022-09-30T21:56:13.912Z,74.74
2022-09-30T21:58:44.584Z,74.93
2022-09-30T22:01:14.089Z,75.02
2022-09-30T22:03:43.573Z,74.96
2022-09-30T22:06:13.414Z,74.99
2022-09-30T22:08:42.748Z,74.83
2022-09-30T22:11:15.567Z,75.09
2022-09-30T22:13:47.377Z,74.75
2022-09-30T22:16:19.942Z,74.88
2022-09-30T22:18:48.980Z,75.08
2022-09-30T22:21:18.089Z,74.87
2022-09-30T22:23:49.109Z,75.76
2022-09-30T22:26:21.509Z,75.57
2022-09-30T22:28:57.009Z,75.45
2022-09-30T22:31:28.514Z,75.72
2022-09-30T22:34:19.123Z,75.46
2022-09-30T22:37:06.278Z,75.16
2022-09-30T22:39:36.613Z,75.29
2022-09-30T22:42:07.449Z,75.52
2022-09-30T22:44:39.403Z,75.40
2022-09-30T22:47:10.999Z,75.59
2022-09-30T22:49:40.155Z,75.54
2022-09-30T22:52:10.026Z,75.43
2022-09-30T22:54:39.177Z,75.45
2022-09-30T22:57:09.198Z,76.06
2022-09-30T22:59:41.820Z,75.46
2022-09-30T23:02:10.850Z,75.88
2022-09-30T23:04:40.041Z,75.75
2022-09-30T23:07:09.244Z,75.40
2022-09-30T23:09:38.353Z,75.63
2022-09-30T23:12:07.488Z,75.44
2022-09-30T23:14:38.917Z,75.76
2022-09-30T23:17:08.199Z,75.58
2022-09-30T23:19:37.357Z,75.46
2022-09-30T23:22:06.763Z,75.61
2022-09-30T23:24:35.971Z,75.09
2022-09-30T23:27:05.215Z,75.53
2022-09-30T23:29:34.362Z,75.50
2022-09-30T23:32:04.987Z,75.59
2022-09-30T23:34:34.138Z,75.18
2022-09-30T23:37:03.253Z,74.96
2022-09-30T23:39:32.366Z,75.05
2022-09-30T23:42:01.547Z,75.18
2022-09-30T23:44:31.114Z,74.92
2022-09-30T23:47:17.424Z,74.46
2022-09-30T23:49:48.173Z,74.41
2022-09-30T23:52:17.952Z,74.21
2022-09-30T23:54:47.094Z,73.76
2022-09-30T23:57:16.223Z,74.40
2022-09-30T23:59:45.369Z,74.33
